WetterOnline ( http://www.wetteronline.de )

Wetter aktuell Luckenwalde

Aktuelles Wetter: Baruth (55m)

6-stündlich | Neueste Meldungen
Ortszeit Temperatur Wetter
Do, 21.06. 20:00 16.1° C wolkig
Do, 21.06. 14:00 -° C leichter Regen
Do, 21.06. 8:00 23.2° C fast wolkenlos
Do, 21.06. 2:00 15.6° C leicht bewölkt
Mi, 20.06. 20:00 28.5° C wolkig
Mi, 20.06. 14:00 26.0° C bewölkt
Mi, 20.06. 8:00 18.5° C bedeckt
Mi, 20.06. 2:00 13.4° C wolkig
Ortszeit Temperatur Wetter
Do, 21.06. 23:10 12.0° C wolkig
Do, 21.06. 23:00 11.0° C leicht bewölkt
Do, 21.06. 22:50 11.0° C leicht bewölkt
Do, 21.06. 22:40 11.4° C bewölkt
Do, 21.06. 22:30 11.8° C leicht bewölkt
Do, 21.06. 22:20 11.8° C leicht bewölkt
Do, 21.06. 22:00 13.5° C wolkig
Do, 21.06. 21:30 13.9° C leicht bewölkt
Do, 21.06. 21:00 14.6° C wolkenlos
Do, 21.06. 20:30 15.7° C leicht bewölkt
Do, 21.06. 20:00 16.1° C wolkig
Ortszeit Relative Feuchte Sichtweite
Do, 21.06. 20:00 50% 55 km
Do, 21.06. 14:00 - 5.0 km
Do, 21.06. 8:00 57% 16 km
Do, 21.06. 2:00 85% 17 km
Mi, 20.06. 20:00 39% 45 km
Mi, 20.06. 14:00 48% 28 km
Mi, 20.06. 8:00 78% 13 km
Mi, 20.06. 2:00 93% 8 km
Ortszeit Relative Feuchte Sichtweite
Do, 21.06. 23:10 64% -
Do, 21.06. 23:00 68% 55 km
Do, 21.06. 22:50 68% -
Do, 21.06. 22:40 67% -
Do, 21.06. 22:30 64% 60 km
Do, 21.06. 22:20 64% -
Do, 21.06. 22:00 56% 65 km
Do, 21.06. 21:30 53% 65 km
Do, 21.06. 21:00 48% 65 km
Do, 21.06. 20:30 48% 55 km
Do, 21.06. 20:00 50% 55 km
Ortszeit Niederschlagsmenge Niederschlagsart
Do, 21.06. 20:00 4 l/m2 in 12 Std. Regen
Do, 21.06. 14:00 0.7 l/m2 in 6 Std. Regen
Do, 21.06. 8:00 0.0 l/m2 in 12 Std. -
Do, 21.06. 2:00 0.0 l/m2 in 6 Std. -
Mi, 20.06. 20:00 0.0 l/m2 in 12 Std. -
Mi, 20.06. 14:00 0.0 l/m2 in 6 Std. -
Mi, 20.06. 8:00 0.0 l/m2 in 12 Std. -
Mi, 20.06. 2:00 0.0 l/m2 in 6 Std. -
Ortszeit Niederschlagsmenge Niederschlagsart
Do, 21.06. 23:10 keine Meldung -
Do, 21.06. 23:00 0.0 l/m2 in 1 Std. -
Do, 21.06. 22:50 keine Meldung -
Do, 21.06. 22:40 keine Meldung -
Do, 21.06. 22:30 0.0 l/m2 in 1 Std. -
Do, 21.06. 22:20 keine Meldung -
Do, 21.06. 22:00 0.0 l/m2 in 1 Std. -
Do, 21.06. 21:30 0.0 l/m2 in 1 Std. -
Do, 21.06. 21:00 0.0 l/m2 in 1 Std. -
Do, 21.06. 20:30 0.0 l/m2 in 1 Std. -
Do, 21.06. 20:00 0.0 l/m2 in 1 Std. Regen
Ortszeit Stärke Spitze Richtung
km/h Bft. km/h Grad Sektor
Do, 21.06. 20:00 25 4 65 280° W
Do, 21.06. 14:00 30 5 83 290° W
Do, 21.06. 8:00 14 3 22 200° S
Do, 21.06. 2:00 4 1 18 240° SW
Mi, 20.06. 20:00 7 2 26 270° W
Mi, 20.06. 14:00 13 3 24 250° W
Mi, 20.06. 8:00 4 1 7 140° SO
Mi, 20.06. 2:00 4 1 14 270° W
Ortszeit Stärke Spitze Richtung
km/h Bft. km/h Grad Sektor
Do, 21.06. 23:10 18 3 - 280° W
Do, 21.06. 23:00 11 2 19 270° W
Do, 21.06. 22:50 11 2 - 270° W
Do, 21.06. 22:40 7 2 - 260° W
Do, 21.06. 22:30 7 2 18 280° W
Do, 21.06. 22:20 7 2 - 280° W
Do, 21.06. 22:00 13 3 35 290° W
Do, 21.06. 21:30 13 3 35 290° W
Do, 21.06. 21:00 19 3 50 300° NW
Do, 21.06. 20:30 22 4 40 290° W
Do, 21.06. 20:00 25 4 50 280° W
Ortszeit Untergrenze Bedeckung Gattung
total tief tief mittel hoch
Do, 21.06. 20:00 1500 m 5/8 5/8 - - -
Do, 21.06. 14:00 30 m 8/8 7/8 - - -
Do, 21.06. 8:00 1800 m 1/8 1/8 - - -
Do, 21.06. 2:00 2100 m 4/8 4/8 - - -
Mi, 20.06. 20:00 1800 m 5/8 5/8 - - -
Mi, 20.06. 14:00 1800 m 7/8 7/8 - - -
Mi, 20.06. 8:00 1380 m 8/8 8/8 - - -
Mi, 20.06. 2:00 1080 m 8/8 1/8 - - -
Ortszeit Bedeckungsgrad in Achtel und Wolkenuntergrenze
Do, 21.06. 23:10 5(1800m)
Do, 21.06. 23:00 4(1260m) 4(2100m)
Do, 21.06. 22:50 4(1260m) 4(2100m)
Do, 21.06. 22:40 5(1260m) 6(1500m) 7(2100m)
Do, 21.06. 22:30 3(1290m) 3(1470m)
Do, 21.06. 22:20 3(1290m) 3(1470m)
Do, 21.06. 22:00 3(1800m) 5(2100m)
Do, 21.06. 21:30 1(2100m) 3(2100m)
Do, 21.06. 21:00 keine Wolken
Do, 21.06. 20:30 3(1470m)
Do, 21.06. 20:00 3(1500m) 4(1800m) 5(2100m)
Ortszeit Luftdruck NN (hPa) Tendenz (hPa in 3 Std.)
Do, 21.06. 20:00 1015 + 1,0
Do, 21.06. 14:00 1011 + 2,2
Do, 21.06. 8:00 1011 - 1,5
Do, 21.06. 2:00 1015 - 1,0
Mi, 20.06. 20:00 1016 - 2,3
Mi, 20.06. 14:00 1021 - 1,7
Mi, 20.06. 8:00 1024 0,0
Mi, 20.06. 2:00 1023 + 0,5
Ortszeit Luftdruck NN (hPa) Tendenz (hPa in 3 Std.)
Do, 21.06. 23:10 1017 keine Meldung
Do, 21.06. 23:00 1017 + 2,4
Do, 21.06. 22:50 1017 keine Meldung
Do, 21.06. 22:40 1017 keine Meldung
Do, 21.06. 22:30 1017 + 2,3
Do, 21.06. 22:20 1017 keine Meldung
Do, 21.06. 22:00 1017 + 2,0
Do, 21.06. 21:30 1016 + 1,8
Do, 21.06. 21:00 1016 + 1,8
Do, 21.06. 20:30 1015 + 1,1
Do, 21.06. 20:00 1015 + 1,0
Ortszeit Schneehöhe (cm)
Do, 21.06. 20:00 -
Do, 21.06. 14:00 -
Do, 21.06. 8:00 -
Do, 21.06. 2:00 -
Mi, 20.06. 20:00 -
Mi, 20.06. 14:00 -
Mi, 20.06. 8:00 -
Mi, 20.06. 2:00 -
Ortszeit Schneehöhe (cm)
Do, 21.06. 23:10 -
Do, 21.06. 23:00 -
Do, 21.06. 22:50 -
Do, 21.06. 22:40 -
Do, 21.06. 22:30 -
Do, 21.06. 22:20 -
Do, 21.06. 22:00 -
Do, 21.06. 21:30 -
Do, 21.06. 21:00 -
Do, 21.06. 20:30 -
Do, 21.06. 20:00 -
Link zu dieser Seite / Seite empfehlen

Das Wetter in ...